Fort Smith Regional Airport
KFSM : now visible

Airfield :











YOU CAN JOIN US ON...

 
LOGIN :

Register | Disclaimer

   EN    FR    IT 

 









Legend :    VFR   Marginal VFR   IFR   Intensive IFR   Very Intensive IFR
Visi :
Ceiling :
>= 8 km
>= 3000ft
5 to 8 km
1000 to 3000 ft
1500m to 5 km
500 to 1000 ft
800 to 1500m
200 to 500 ft
< 800m
< 200 ft
Symbols :   Thunderstorms  Fog  Heavy snow  Heavy precipitations  Wind > 20 kt







- Airport Elevation : 469 ft
- IATA code : FSM


KFSM - Fort Smith Regional

CURRENT METAR :
  • 202053Z 09008KT 10SM OVC014 22/22 A3003 RMK AO2 RAE47 SLP164 P0001 60027 T02220222 56007

EXPIRED METARs :
  • 202037Z 09006KT 10SM -RA OVC015 22/22 A3002 RMK AO2 P0001 T02220222
  • 202012Z 09007KT 10SM -RA BKN014 OVC020 22/22 A3002 RMK AO2 P0001 T02220222
  • 201953Z 09005KT 5SM -RA BR FEW008 OVC021 22/22 A3003 RMK AO2 SLP164 P0023 T02170217
  • 201943Z 10008KT 3SM RA BR FEW009 BKN021 OVC026 22/22 A3003 RMK AO2 P0021 T02170217

TAF KFSM
Valid from the 20 at 18:00 until the 21 at 18:00 UTC


201737Z 2018/2118 11007KT P6SM -SHRA OVC030
TEMPO 2018/2022 2SM RA BR BKN015
FM210100 10008KT P6SM OVC015
No reported NOTAMs for that airfield.



MET'MAP, your aeronautical weather chart ! - Copyright ORBIFLY December 2007 - Disclaimer

ORBIFLY MET'MAP TEAM :

Programming & Development : Alexandra Zaïnal
Concept & Development : Baudouin d'Aumeries
Co-Development & Prog : Marc-Olivier Méhu
Technical & hardware support : Manuel Goepfert

Contact : metmap@orbifly.com




SOURCES & CREDITS :

   NOAA       Earth
Advisory